createdAt,value
2022-11-03T00:00:16.676Z,98.5
2022-11-03T00:01:17.261Z,98.5
2022-11-03T00:02:17.053Z,98.5
2022-11-03T00:03:16.673Z,98.5
2022-11-03T00:04:17.134Z,98.5
2022-11-03T00:05:16.564Z,98.5
2022-11-03T00:06:17.006Z,98.4
2022-11-03T00:07:16.447Z,98.4
2022-11-03T00:08:16.924Z,98.5
2022-11-03T00:09:17.430Z,98.5
2022-11-03T00:10:16.888Z,98.7
2022-11-03T00:11:17.360Z,98.7
2022-11-03T00:12:16.932Z,98.7
2022-11-03T00:13:17.483Z,98.7
2022-11-03T00:14:16.961Z,98.6
2022-11-03T00:15:17.414Z,98.5
2022-11-03T00:16:16.883Z,98.5
2022-11-03T00:17:17.358Z,98.6
2022-11-03T00:18:16.790Z,98.7
2022-11-03T00:19:17.802Z,98.7
2022-11-03T00:20:17.275Z,98.7
2022-11-03T00:21:16.717Z,98.6
2022-11-03T00:22:17.159Z,98.5
2022-11-03T00:23:16.649Z,98.5
2022-11-03T00:24:17.120Z,98.5
2022-11-03T00:25:16.634Z,98.5
2022-11-03T00:26:17.140Z,98.5
2022-11-03T00:27:16.644Z,98.5
2022-11-03T00:28:17.122Z,98.5
2022-11-03T00:29:16.611Z,98.5
2022-11-03T00:30:17.066Z,98.5
2022-11-03T00:31:16.515Z,98.5
2022-11-03T00:32:16.703Z,98.5
2022-11-03T00:33:17.155Z,98.5
2022-11-03T00:34:16.583Z,98.5
2022-11-03T00:35:17.045Z,98.5
2022-11-03T00:36:16.488Z,98.3
2022-11-03T00:37:16.963Z,98.2
2022-11-03T00:38:17.456Z,98.2
2022-11-03T00:39:16.948Z,98.2
2022-11-03T00:40:17.453Z,98.2
2022-11-03T00:41:16.975Z,98.3
2022-11-03T00:42:16.896Z,98.2
2022-11-03T00:43:17.396Z,98.3
2022-11-03T00:44:16.867Z,98.3
2022-11-03T00:45:17.298Z,98.4
2022-11-03T00:46:16.711Z,98.3
2022-11-03T00:47:24.137Z,98.3
2022-11-03T00:48:16.847Z,98.3
2022-11-03T00:49:17.314Z,98.3
2022-11-03T00:50:16.745Z,98.3
2022-11-03T00:51:17.218Z,98.3
2022-11-03T00:52:17.065Z,98.4
2022-11-03T00:53:16.568Z,98.3
2022-11-03T00:54:17.080Z,98.3
2022-11-03T00:55:16.606Z,98.3
2022-11-03T00:56:17.096Z,98.3
2022-11-03T00:57:16.574Z,98.2
2022-11-03T00:58:17.049Z,98.2
2022-11-03T00:59:16.479Z,98.2
2022-11-03T01:00:16.960Z,98.2
2022-11-03T01:01:17.755Z,98.2
2022-11-03T01:02:16.752Z,98.1
2022-11-03T01:03:17.250Z,98.2
2022-11-03T01:04:16.677Z,98.2
2022-11-03T01:05:17.145Z,98.1
2022-11-03T01:06:16.589Z,98.2
2022-11-03T01:07:17.079Z,98.2
2022-11-03T01:08:16.541Z,98.2
2022-11-03T01:09:17.009Z,98.2
2022-11-03T01:10:16.471Z,98.2
2022-11-03T01:11:16.986Z,98.2
2022-11-03T01:12:16.614Z,98.2
2022-11-03T01:13:17.082Z,98.2
2022-11-03T01:14:16.506Z,98.3
2022-11-03T01:15:16.992Z,98.3
2022-11-03T01:16:16.437Z,98.3
2022-11-03T01:17:16.889Z,98.3
2022-11-03T01:18:17.321Z,98.2
2022-11-03T01:19:16.741Z,98.3
2022-11-03T01:20:17.192Z,98.3
2022-11-03T01:21:16.676Z,98.3
2022-11-03T01:22:17.073Z,98.3
2022-11-03T01:23:16.553Z,98.3
2022-11-03T01:24:17.038Z,98.3
2022-11-03T01:25:16.519Z,98.3
2022-11-03T01:26:16.977Z,98.3
2022-11-03T01:27:16.460Z,98.3
2022-11-03T01:28:16.893Z,98.3
2022-11-03T01:29:17.347Z,98.3
2022-11-03T01:30:16.788Z,98.4
2022-11-03T01:31:17.226Z,98.4
2022-11-03T01:32:17.080Z,98.3
2022-11-03T01:33:16.542Z,98.4
2022-11-03T01:34:16.975Z,98.3
2022-11-03T01:35:16.414Z,98.3
2022-11-03T01:36:16.857Z,98.5
2022-11-03T01:37:17.353Z,98.5
2022-11-03T01:38:16.820Z,98.5
2022-11-03T01:39:17.292Z,98.4
2022-11-03T01:40:16.741Z,98.4
2022-11-03T01:41:17.214Z,98.4
2022-11-03T01:42:17.195Z,98.4
2022-11-03T01:43:16.631Z,98.3
2022-11-03T01:44:17.065Z,98.4
2022-11-03T01:45:16.505Z,98.4
2022-11-03T01:46:16.947Z,98.4
2022-11-03T01:47:17.786Z,98.4
2022-11-03T01:48:17.261Z,98.4
2022-11-03T01:49:16.700Z,98.3
2022-11-03T01:50:17.182Z,98.3
2022-11-03T01:51:16.641Z,98.3
2022-11-03T01:52:17.245Z,98.3
2022-11-03T01:53:16.717Z,98.3
2022-11-03T01:54:17.198Z,98.3
2022-11-03T01:55:16.659Z,98.3
2022-11-03T01:56:17.159Z,98.4
2022-11-03T01:57:16.635Z,98.3
2022-11-03T01:58:17.100Z,98.3
2022-11-03T01:59:16.536Z,98.3
2022-11-03T02:00:17.019Z,98.3
2022-11-03T02:01:16.752Z,98.2
2022-11-03T02:02:17.132Z,98.1
2022-11-03T02:03:16.605Z,98.0
2022-11-03T02:04:17.043Z,98.0
2022-11-03T02:05:16.553Z,97.9
2022-11-03T02:06:17.069Z,98.0
2022-11-03T02:07:16.539Z,98.0
2022-11-03T02:08:17.028Z,97.9
2022-11-03T02:09:16.522Z,97.8
2022-11-03T02:10:16.998Z,97.8
2022-11-03T02:11:16.468Z,97.8
2022-11-03T02:12:17.099Z,97.8
2022-11-03T02:13:16.529Z,97.8
2022-11-03T02:14:16.974Z,97.8
2022-11-03T02:15:17.414Z,97.8
2022-11-03T02:16:16.845Z,97.8
2022-11-03T02:17:17.303Z,97.7
2022-11-03T02:18:16.737Z,97.8
2022-11-03T02:19:17.176Z,97.8
2022-11-03T02:20:16.653Z,97.8
2022-11-03T02:21:17.115Z,97.8
2022-11-03T02:22:17.088Z,97.8
2022-11-03T02:23:16.549Z,97.8
2022-11-03T02:24:17.016Z,97.8
2022-11-03T02:25:16.484Z,97.8
2022-11-03T02:26:16.964Z,97.7
2022-11-03T02:27:17.420Z,97.8
2022-11-03T02:28:16.890Z,97.8
2022-11-03T02:29:17.328Z,97.8
2022-11-03T02:30:16.807Z,98.0
2022-11-03T02:31:17.262Z,98.0
2022-11-03T02:32:16.457Z,98.0
2022-11-03T02:33:16.905Z,98.0
2022-11-03T02:34:17.392Z,98.0
2022-11-03T02:35:16.884Z,98.1
2022-11-03T02:36:17.359Z,98.2
2022-11-03T02:37:16.807Z,98.2
2022-11-03T02:38:17.280Z,98.2
2022-11-03T02:39:16.780Z,98.2
2022-11-03T02:40:17.272Z,98.2
2022-11-03T02:41:16.713Z,98.2
2022-11-03T02:42:16.534Z,98.3
2022-11-03T02:43:16.962Z,98.3
2022-11-03T02:44:17.412Z,98.5
2022-11-03T02:45:17.852Z,98.5
2022-11-03T02:46:17.304Z,98.5
2022-11-03T02:47:16.725Z,98.6
2022-11-03T02:48:17.174Z,98.6
2022-11-03T02:49:16.641Z,98.6
2022-11-03T02:50:17.123Z,98.7
2022-11-03T02:51:16.576Z,98.6
2022-11-03T02:52:16.572Z,98.5
2022-11-03T02:53:17.043Z,98.4
2022-11-03T02:54:16.533Z,98.3
2022-11-03T02:55:16.998Z,98.3
2022-11-03T02:56:16.426Z,98.3
2022-11-03T02:57:16.853Z,98.2
2022-11-03T02:58:17.299Z,98.2
2022-11-03T02:59:16.734Z,98.2
2022-11-03T03:00:17.185Z,98.1
2022-11-03T03:01:16.897Z,98.1
2022-11-03T03:02:16.946Z,98.2
2022-11-03T03:03:17.430Z,98.0
2022-11-03T03:04:16.880Z,97.9
2022-11-03T03:05:17.349Z,98.0
2022-11-03T03:06:16.812Z,98.0
2022-11-03T03:07:17.278Z,98.0
2022-11-03T03:08:16.717Z,98.0
2022-11-03T03:09:17.179Z,98.0
2022-11-03T03:10:16.623Z,98.0
2022-11-03T03:11:17.070Z,98.0
2022-11-03T03:12:16.503Z,98.0
2022-11-03T03:13:16.953Z,97.9
2022-11-03T03:14:17.378Z,97.8
2022-11-03T03:15:16.841Z,97.8
2022-11-03T03:16:17.268Z,97.8
2022-11-03T03:17:16.720Z,97.8
2022-11-03T03:18:17.161Z,97.8
2022-11-03T03:19:16.622Z,97.9
2022-11-03T03:20:17.130Z,98.0
2022-11-03T03:21:16.623Z,97.9
2022-11-03T03:22:16.872Z,97.9
2022-11-03T03:23:18.630Z,97.9
2022-11-03T03:24:17.259Z,98.0
2022-11-03T03:25:16.723Z,98.0
2022-11-03T03:26:17.148Z,98.0
2022-11-03T03:27:16.615Z,98.1
2022-11-03T03:28:17.048Z,98.2
2022-11-03T03:29:16.471Z,98.2
2022-11-03T03:30:16.900Z,98.3
2022-11-03T03:31:17.372Z,98.3
2022-11-03T03:32:17.144Z,98.3
2022-11-03T03:33:16.715Z,98.5
2022-11-03T03:34:35.014Z,98.5
2022-11-03T03:35:16.775Z,98.5
2022-11-03T03:36:17.284Z,98.4
2022-11-03T03:37:16.732Z,98.2
2022-11-03T03:38:17.197Z,98.1
2022-11-03T03:39:16.637Z,98.0
2022-11-03T03:40:17.105Z,98.0
2022-11-03T03:41:16.560Z,98.0
2022-11-03T03:42:16.569Z,97.9
2022-11-03T03:43:17.036Z,97.8
2022-11-03T03:44:16.483Z,97.8
2022-11-03T03:45:16.908Z,97.8
2022-11-03T03:46:17.396Z,97.8
2022-11-03T03:47:16.866Z,97.8
2022-11-03T03:48:17.342Z,97.8
2022-11-03T03:49:16.819Z,97.9
2022-11-03T03:50:16.767Z,98.4
2022-11-03T03:51:17.234Z,98.7
2022-11-03T03:52:17.169Z,98.8
2022-11-03T03:53:16.670Z,98.7
2022-11-03T03:54:17.117Z,98.7
2022-11-03T03:55:16.815Z,98.7
2022-11-03T03:56:17.271Z,98.5
2022-11-03T03:57:16.715Z,98.5
2022-11-03T03:58:17.148Z,98.5
2022-11-03T03:59:16.586Z,98.7
2022-11-03T04:00:17.040Z,98.7
2022-11-03T04:01:16.770Z,98.8
2022-11-03T04:02:17.389Z,98.8
2022-11-03T04:03:16.939Z,98.8
2022-11-03T04:04:17.391Z,98.9
2022-11-03T04:05:16.853Z,98.8
2022-11-03T04:06:17.320Z,98.8
2022-11-03T04:07:16.773Z,98.7
2022-11-03T04:08:17.204Z,98.7
2022-11-03T04:09:16.634Z,98.7
2022-11-03T04:10:17.068Z,98.7
2022-11-03T04:11:16.526Z,98.7
2022-11-03T04:12:17.403Z,98.6
2022-11-03T04:13:16.822Z,98.6
2022-11-03T04:14:17.277Z,98.5
2022-11-03T04:15:16.743Z,98.5
2022-11-03T04:16:17.213Z,98.4
2022-11-03T04:17:16.675Z,98.4
2022-11-03T04:18:17.168Z,98.4
2022-11-03T04:19:16.650Z,98.5
2022-11-03T04:20:17.107Z,98.5
2022-11-03T04:21:16.576Z,98.5
2022-11-03T04:22:17.316Z,98.5
2022-11-03T04:23:16.787Z,98.5
2022-11-03T04:24:17.215Z,98.5
2022-11-03T04:25:16.645Z,98.5
2022-11-03T04:26:17.088Z,98.3
2022-11-03T04:27:16.545Z,98.2
2022-11-03T04:28:16.976Z,98.2
2022-11-03T04:29:16.428Z,98.2
2022-11-03T04:30:16.897Z,98.2
2022-11-03T04:31:17.399Z,98.2
2022-11-03T04:32:16.794Z,98.2
2022-11-03T04:33:17.261Z,98.2
2022-11-03T04:34:16.738Z,98.2
2022-11-03T04:35:17.201Z,98.2
2022-11-03T04:36:16.655Z,98.2
2022-11-03T04:37:17.189Z,98.2
2022-11-03T04:38:16.766Z,98.2
2022-11-03T04:39:17.288Z,98.2
2022-11-03T04:40:16.944Z,98.2
2022-11-03T04:41:16.639Z,98.2
2022-11-03T04:42:16.933Z,98.2
2022-11-03T04:43:17.377Z,98.3
2022-11-03T04:44:16.836Z,98.2
2022-11-03T04:45:17.314Z,98.2
2022-11-03T04:46:16.821Z,98.3
2022-11-03T04:47:17.308Z,98.3
2022-11-03T04:48:16.763Z,98.2
2022-11-03T04:49:17.238Z,98.2
2022-11-03T04:50:16.712Z,98.2
2022-11-03T04:51:17.152Z,98.2
2022-11-03T04:52:16.842Z,98.2
2022-11-03T04:53:17.288Z,98.2
2022-11-03T04:54:16.727Z,98.2
2022-11-03T04:55:17.180Z,98.2
2022-11-03T04:56:16.630Z,98.2
2022-11-03T04:57:17.086Z,98.2
2022-11-03T04:58:16.586Z,98.1
2022-11-03T04:59:17.062Z,98.0
2022-11-03T05:00:16.549Z,98.0
2022-11-03T05:01:24.170Z,98.1
2022-11-03T05:02:17.308Z,98.1
2022-11-03T05:03:16.795Z,98.2
2022-11-03T05:04:17.224Z,98.2
2022-11-03T05:05:16.694Z,98.2
2022-11-03T05:06:17.115Z,98.2
2022-11-03T05:07:16.550Z,98.2
2022-11-03T05:08:16.996Z,98.3
2022-11-03T05:09:16.460Z,98.4
2022-11-03T05:10:16.886Z,98.5
2022-11-03T05:11:17.355Z,98.5
2022-11-03T05:12:17.244Z,98.5
2022-11-03T05:13:16.720Z,98.5
2022-11-03T05:14:17.185Z,98.5
2022-11-03T05:15:16.681Z,98.5
2022-11-03T05:16:17.171Z,98.5
2022-11-03T05:17:16.644Z,98.5
2022-11-03T05:18:17.105Z,98.5
2022-11-03T05:19:16.570Z,98.5
2022-11-03T05:20:17.007Z,98.5
2022-11-03T05:21:16.489Z,98.4
2022-11-03T05:22:17.306Z,98.3
2022-11-03T05:23:16.734Z,98.3
2022-11-03T05:24:17.182Z,98.2
2022-11-03T05:25:16.618Z,98.2
2022-11-03T05:26:17.073Z,98.2
2022-11-03T05:27:16.576Z,98.2
2022-11-03T05:28:17.047Z,98.2
2022-11-03T05:29:16.512Z,98.2
2022-11-03T05:30:17.001Z,98.2
2022-11-03T05:31:16.454Z,98.2
2022-11-03T05:32:17.321Z,98.1
2022-11-03T05:33:16.806Z,98.1
2022-11-03T05:34:17.243Z,98.2
2022-11-03T05:35:16.682Z,98.1
2022-11-03T05:36:17.126Z,98.2
2022-11-03T05:37:17.397Z,98.2
2022-11-03T05:38:17.001Z,98.2
2022-11-03T05:39:16.457Z,98.2
2022-11-03T05:40:16.894Z,98.2
2022-11-03T05:41:17.344Z,99.0
2022-11-03T05:42:16.724Z,99.7
2022-11-03T05:43:17.203Z,99.7
2022-11-03T05:44:16.652Z,99.5
2022-11-03T05:45:17.134Z,99.0
2022-11-03T05:46:16.613Z,98.8
2022-11-03T05:47:17.095Z,98.7
2022-11-03T05:48:16.554Z,98.8
2022-11-03T05:49:17.010Z,98.8
2022-11-03T05:50:16.435Z,99.2
2022-11-03T05:51:16.861Z,99.0
2022-11-03T05:52:16.737Z,99.2
2022-11-03T05:53:17.171Z,99.2
2022-11-03T05:54:19.958Z,99.3
2022-11-03T05:55:16.418Z,99.2
2022-11-03T05:56:16.891Z,99.3
2022-11-03T05:57:17.579Z,99.2
2022-11-03T05:58:17.025Z,99.0
2022-11-03T05:59:16.485Z,98.8
2022-11-03T06:00:16.968Z,99.0
2022-11-03T06:01:17.520Z,99.3
2022-11-03T06:02:16.853Z,99.2
2022-11-03T06:03:17.336Z,99.0
2022-11-03T06:04:16.756Z,99.0
2022-11-03T06:05:17.216Z,98.8
2022-11-03T06:06:16.641Z,98.8
2022-11-03T06:07:17.064Z,98.9
2022-11-03T06:08:16.595Z,99.2
2022-11-03T06:09:17.070Z,99.3
2022-11-03T06:10:16.576Z,99.2
2022-11-03T06:11:17.098Z,99.0
2022-11-03T06:12:16.560Z,98.8
2022-11-03T06:13:17.049Z,98.8
2022-11-03T06:14:24.548Z,98.7
2022-11-03T06:15:17.151Z,98.7
2022-11-03T06:16:16.629Z,98.7
2022-11-03T06:17:17.101Z,98.7
2022-11-03T06:18:16.538Z,98.7
2022-11-03T06:19:16.988Z,98.7
2022-11-03T06:20:16.425Z,98.6
2022-11-03T06:21:16.861Z,98.5
2022-11-03T06:22:16.858Z,98.4
2022-11-03T06:23:17.279Z,98.3
2022-11-03T06:24:16.708Z,98.2
2022-11-03T06:25:17.176Z,98.0
2022-11-03T06:26:16.637Z,98.0
2022-11-03T06:27:17.137Z,98.0
2022-11-03T06:28:16.617Z,97.9
2022-11-03T06:29:17.082Z,97.8
2022-11-03T06:30:16.601Z,97.8
2022-11-03T06:31:23.109Z,97.8
2022-11-03T06:32:16.484Z,97.9
2022-11-03T06:33:16.918Z,98.0
2022-11-03T06:34:17.345Z,98.3
2022-11-03T06:35:16.844Z,98.4
2022-11-03T06:36:17.290Z,98.4
2022-11-03T06:37:16.754Z,98.3
2022-11-03T06:38:17.174Z,98.2
2022-11-03T06:39:16.621Z,98.2
2022-11-03T06:40:17.077Z,98.2
2022-11-03T06:41:16.555Z,98.2
2022-11-03T06:42:16.769Z,98.2
2022-11-03T06:43:17.265Z,98.2
2022-11-03T06:44:16.714Z,98.2
2022-11-03T06:45:17.249Z,98.2
2022-11-03T06:46:16.715Z,98.2
2022-11-03T06:47:17.169Z,98.2
2022-11-03T06:48:16.652Z,98.1
2022-11-03T06:49:17.145Z,98.0
2022-11-03T06:50:16.594Z,98.0
2022-11-03T06:51:17.067Z,98.0
2022-11-03T06:52:17.354Z,98.0
2022-11-03T06:53:16.794Z,98.0
2022-11-03T06:54:17.280Z,97.8
2022-11-03T06:55:17.404Z,97.9
2022-11-03T06:56:16.885Z,97.9
2022-11-03T06:57:17.356Z,97.9
2022-11-03T06:58:16.843Z,97.8
2022-11-03T06:59:17.349Z,98.0
2022-11-03T07:00:33.927Z,98.0
2022-11-03T07:01:17.080Z,98.0
2022-11-03T07:02:16.682Z,98.0
2022-11-03T07:03:17.178Z,98.0
2022-11-03T07:04:16.628Z,98.0
2022-11-03T07:05:17.141Z,97.9
2022-11-03T07:06:16.606Z,97.8
2022-11-03T07:07:17.080Z,97.8
2022-11-03T07:08:16.540Z,97.8
2022-11-03T07:09:17.013Z,97.9
2022-11-03T07:10:16.484Z,97.9
2022-11-03T07:11:16.946Z,97.8
2022-11-03T07:12:16.788Z,97.6
2022-11-03T07:13:17.253Z,97.5
2022-11-03T07:14:16.715Z,97.5
2022-11-03T07:15:17.141Z,97.3
2022-11-03T07:16:19.258Z,97.5
2022-11-03T07:17:16.800Z,97.5
2022-11-03T07:18:17.233Z,97.5
2022-11-03T07:19:16.660Z,97.5
2022-11-03T07:20:17.099Z,97.4
2022-11-03T07:21:16.548Z,97.3
2022-11-03T07:22:16.557Z,97.4
2022-11-03T07:23:17.029Z,97.5
2022-11-03T07:24:16.535Z,97.5
2022-11-03T07:25:16.996Z,97.3
2022-11-03T07:26:16.454Z,97.3
2022-11-03T07:27:16.938Z,97.3
2022-11-03T07:28:17.428Z,97.3
2022-11-03T07:29:16.863Z,97.3
2022-11-03T07:30:17.414Z,97.3
2022-11-03T07:31:17.043Z,97.1
2022-11-03T07:32:16.505Z,97.0
2022-11-03T07:33:16.942Z,96.9
2022-11-03T07:34:17.366Z,96.8
2022-11-03T07:35:16.780Z,96.7
2022-11-03T07:36:17.553Z,96.5
2022-11-03T07:37:17.112Z,96.5
2022-11-03T07:38:16.588Z,96.5
2022-11-03T07:39:17.066Z,96.3
2022-11-03T07:40:16.527Z,96.2
2022-11-03T07:41:17.010Z,96.1
2022-11-03T07:42:16.470Z,96.0
2022-11-03T07:43:16.926Z,95.9
2022-11-03T07:44:17.389Z,95.8
2022-11-03T07:45:16.856Z,95.6
2022-11-03T07:46:17.298Z,95.6
2022-11-03T07:47:16.758Z,95.5
2022-11-03T07:48:17.208Z,95.5
2022-11-03T07:49:16.642Z,95.1
2022-11-03T07:50:17.121Z,95.2
2022-11-03T07:51:16.603Z,94.7
2022-11-03T07:52:17.168Z,94.8
2022-11-03T07:53:16.643Z,94.8
2022-11-03T07:54:17.104Z,94.5
2022-11-03T07:55:16.574Z,94.2
2022-11-03T07:56:17.112Z,93.8
2022-11-03T07:57:16.650Z,93.5
2022-11-03T07:58:17.085Z,93.4
2022-11-03T07:59:16.798Z,94.0
2022-11-03T08:00:17.300Z,94.3
2022-11-03T08:01:16.876Z,94.9
2022-11-03T08:02:17.037Z,94.8
2022-11-03T08:03:16.515Z,94.8
2022-11-03T08:04:16.944Z,94.2
2022-11-03T08:05:17.436Z,93.7
2022-11-03T08:06:20.305Z,93.8
2022-11-03T08:07:16.800Z,93.7
2022-11-03T08:08:17.290Z,93.2
2022-11-03T08:09:16.772Z,93.4
2022-11-03T08:10:17.250Z,93.8
2022-11-03T08:11:16.762Z,93.0
2022-11-03T08:12:16.513Z,92.9
2022-11-03T08:13:16.965Z,92.9
2022-11-03T08:14:17.387Z,92.5
2022-11-03T08:15:16.867Z,92.4
2022-11-03T08:16:17.292Z,92.5
2022-11-03T08:17:16.724Z,92.0
2022-11-03T08:18:17.146Z,92.9
2022-11-03T08:19:16.660Z,93.1
2022-11-03T08:20:17.157Z,93.2
2022-11-03T08:21:16.660Z,93.1
2022-11-03T08:22:17.343Z,92.5
2022-11-03T08:23:26.585Z,92.4
2022-11-03T08:24:17.260Z,91.8
2022-11-03T08:25:16.741Z,91.5
2022-11-03T08:26:17.213Z,91.0
2022-11-03T08:27:16.688Z,90.4
2022-11-03T08:28:17.116Z,89.5
2022-11-03T08:29:16.546Z,89.7
2022-11-03T08:30:17.003Z,89.3
2022-11-03T08:31:16.443Z,88.5
2022-11-03T08:32:17.102Z,87.7
2022-11-03T08:33:16.704Z,87.4
2022-11-03T08:34:17.193Z,87.3
2022-11-03T08:35:16.680Z,86.7
2022-11-03T08:36:17.442Z,86.5
2022-11-03T08:37:16.989Z,86.2
2022-11-03T08:38:16.446Z,86.8
2022-11-03T08:39:16.904Z,86.5
2022-11-03T08:40:17.395Z,85.8
2022-11-03T08:41:16.857Z,85.9
2022-11-03T08:42:17.048Z,85.8
2022-11-03T08:43:16.489Z,85.2
2022-11-03T08:44:16.944Z,85.5
2022-11-03T08:45:17.371Z,84.9
2022-11-03T08:46:18.603Z,84.5
2022-11-03T08:47:17.109Z,84.1
2022-11-03T08:48:16.664Z,83.8
2022-11-03T08:49:17.162Z,83.8
2022-11-03T08:50:16.650Z,83.9
2022-11-03T08:51:17.120Z,84.6
2022-11-03T08:52:17.036Z,84.6
2022-11-03T08:53:16.558Z,85.1
2022-11-03T08:54:17.053Z,85.2
2022-11-03T08:55:16.559Z,85.0
2022-11-03T08:56:22.502Z,84.4
2022-11-03T08:57:17.207Z,84.0
2022-11-03T08:58:16.648Z,83.9
2022-11-03T08:59:17.067Z,83.6
2022-11-03T09:00:16.548Z,83.8
2022-11-03T09:01:17.127Z,84.5
2022-11-03T09:02:16.957Z,84.6
2022-11-03T09:03:16.610Z,84.4
2022-11-03T09:04:17.131Z,84.2
2022-11-03T09:05:16.629Z,84.5
2022-11-03T09:06:17.202Z,86.0
2022-11-03T09:07:17.028Z,87.8
2022-11-03T09:11:16.933Z,88.0
2022-11-03T09:12:16.527Z,87.1
2022-11-03T09:13:16.996Z,86.7
2022-11-03T09:14:16.440Z,86.5
2022-11-03T09:15:16.901Z,85.7
2022-11-03T09:16:17.583Z,86.1
2022-11-03T09:17:17.081Z,86.0
2022-11-03T09:18:16.573Z,85.8
2022-11-03T09:19:17.050Z,85.7
2022-11-03T09:20:16.515Z,86.0
2022-11-03T09:21:16.991Z,86.4
2022-11-03T09:22:16.448Z,86.7
2022-11-03T09:23:16.923Z,86.7
2022-11-03T09:24:17.393Z,86.3
2022-11-03T09:25:16.859Z,86.1
2022-11-03T09:26:17.449Z,85.7
2022-11-03T09:27:16.947Z,85.8
2022-11-03T09:28:17.384Z,86.0
2022-11-03T09:29:16.817Z,85.6
2022-11-03T09:30:17.275Z,85.2
2022-11-03T09:31:16.739Z,85.3
2022-11-03T09:32:23.633Z,85.3
2022-11-03T09:33:17.204Z,85.4
2022-11-03T09:34:16.670Z,84.8
2022-11-03T09:35:17.200Z,84.6
2022-11-03T09:36:16.793Z,84.3
2022-11-03T09:37:17.297Z,84.2
2022-11-03T09:38:16.835Z,84.0
2022-11-03T09:39:17.354Z,83.7
2022-11-03T09:40:16.865Z,83.5
2022-11-03T09:41:35.349Z,83.7
2022-11-03T09:42:17.319Z,84.2
2022-11-03T09:43:16.752Z,84.5
2022-11-03T09:44:17.193Z,83.8
2022-11-03T09:45:16.669Z,83.6
2022-11-03T09:46:17.132Z,83.8
2022-11-03T09:47:16.602Z,83.1
2022-11-03T09:48:17.057Z,82.9
2022-11-03T09:49:16.577Z,83.6
2022-11-03T09:50:17.084Z,82.5
2022-11-03T09:51:16.550Z,82.1
2022-11-03T09:52:17.385Z,82.3
2022-11-03T09:53:16.866Z,82.4
2022-11-03T09:54:17.390Z,82.2
2022-11-03T09:55:16.905Z,82.0
2022-11-03T09:56:17.363Z,82.0
2022-11-03T09:57:16.810Z,81.3
2022-11-03T09:58:17.256Z,81.2
2022-11-03T09:59:16.704Z,81.2
2022-11-03T10:00:17.133Z,81.8
2022-11-03T10:01:16.932Z,81.3
2022-11-03T10:02:17.282Z,80.2
2022-11-03T10:03:16.781Z,80.5
2022-11-03T10:04:17.236Z,80.9
2022-11-03T10:06:17.296Z,80.7
2022-11-03T10:07:16.773Z,81.3
2022-11-03T10:08:22.699Z,81.9
2022-11-03T10:09:16.446Z,81.8
2022-11-03T10:10:16.916Z,80.5
2022-11-03T10:11:17.379Z,80.8
2022-11-03T10:12:16.804Z,80.8
2022-11-03T10:13:17.265Z,81.1
2022-11-03T10:14:16.740Z,81.0
2022-11-03T10:15:17.172Z,80.1
2022-11-03T10:16:16.608Z,79.9
2022-11-03T10:17:17.061Z,80.5
2022-11-03T10:18:16.530Z,80.2
2022-11-03T10:19:17.041Z,80.0
2022-11-03T10:20:16.525Z,80.7
2022-11-03T10:21:17.009Z,79.5
2022-11-03T10:22:17.444Z,79.2
2022-11-03T10:23:16.932Z,78.1
2022-11-03T10:24:17.417Z,78.3
2022-11-03T10:25:16.843Z,78.3
2022-11-03T10:26:17.314Z,78.8
2022-11-03T10:27:16.764Z,79.0
2022-11-03T10:28:17.199Z,78.5
2022-11-03T10:29:16.773Z,78.8
2022-11-03T10:30:17.421Z,78.3
2022-11-03T10:31:16.920Z,79.2
2022-11-03T10:32:17.450Z,79.0
2022-11-03T10:33:16.910Z,79.7
2022-11-03T10:34:17.389Z,79.4
2022-11-03T10:35:16.860Z,79.8
2022-11-03T10:36:17.397Z,79.9
2022-11-03T10:37:16.896Z,80.0
2022-11-03T10:38:17.442Z,79.4
2022-11-03T10:39:16.919Z,79.3
2022-11-03T10:40:47.141Z,79.4
2022-11-03T10:41:16.906Z,79.9
2022-11-03T10:42:17.204Z,80.0
2022-11-03T10:43:16.641Z,80.0
2022-11-03T10:44:17.073Z,79.5
2022-11-03T10:45:16.507Z,80.0
2022-11-03T10:46:48.902Z,79.9
2022-11-03T10:47:16.452Z,79.5
2022-11-03T10:48:16.902Z,79.8
2022-11-03T10:49:17.362Z,79.8
2022-11-03T10:50:17.052Z,80.0
2022-11-03T10:51:16.549Z,80.6
2022-11-03T10:52:17.297Z,80.8
2022-11-03T10:53:16.946Z,80.7
2022-11-03T10:54:17.436Z,81.0
2022-11-03T10:55:23.994Z,80.5
2022-11-03T10:56:16.863Z,80.2
2022-11-03T10:57:17.307Z,80.0
2022-11-03T10:58:16.778Z,80.3
2022-11-03T10:59:17.208Z,79.8
2022-11-03T11:00:16.951Z,79.9
2022-11-03T11:01:16.795Z,80.1
2022-11-03T11:02:16.994Z,79.8
2022-11-03T11:03:21.202Z,80.0
2022-11-03T11:04:16.928Z,80.3
2022-11-03T11:05:16.488Z,80.0
2022-11-03T11:06:16.993Z,80.1
2022-11-03T11:07:16.490Z,80.1
2022-11-03T11:08:17.177Z,79.7
2022-11-03T11:09:16.735Z,80.2
2022-11-03T11:10:17.181Z,80.2
2022-11-03T11:11:16.625Z,80.0
2022-11-03T11:12:17.190Z,79.8
2022-11-03T11:13:16.623Z,80.1
2022-11-03T11:14:17.065Z,79.7
2022-11-03T11:15:16.500Z,79.4
2022-11-03T11:16:16.953Z,79.7
2022-11-03T11:17:17.489Z,79.3
2022-11-03T11:18:17.084Z,79.4
2022-11-03T11:19:16.573Z,80.2
2022-11-03T11:20:17.051Z,79.8
2022-11-03T11:21:16.512Z,79.7
2022-11-03T11:22:17.128Z,80.1
2022-11-03T11:23:16.594Z,80.7
2022-11-03T11:24:17.067Z,81.0
2022-11-03T11:25:16.500Z,79.5
2022-11-03T11:26:16.985Z,79.8
2022-11-03T11:27:16.449Z,80.3
2022-11-03T11:28:16.910Z,80.3
2022-11-03T11:29:17.396Z,79.6
2022-11-03T11:30:16.843Z,79.6
2022-11-03T11:31:17.320Z,79.8
2022-11-03T11:32:16.708Z,80.6
2022-11-03T11:33:17.174Z,79.8
2022-11-03T11:34:16.682Z,80.0
2022-11-03T11:35:17.137Z,79.9
2022-11-03T11:36:16.600Z,80.2
2022-11-03T11:37:17.091Z,80.0
2022-11-03T11:38:16.529Z,79.7
2022-11-03T11:39:16.967Z,79.0
2022-11-03T11:40:17.402Z,78.7
2022-11-03T11:41:16.856Z,78.4
2022-11-03T11:42:16.984Z,78.8
2022-11-03T11:43:16.436Z,78.8
2022-11-03T11:44:16.884Z,79.5
2022-11-03T11:45:17.310Z,79.6
2022-11-03T11:46:16.826Z,78.8
2022-11-03T11:47:17.297Z,78.6
2022-11-03T11:48:19.500Z,79.2
2022-11-03T11:49:17.037Z,78.6
2022-11-03T11:50:16.513Z,79.2
2022-11-03T11:51:16.982Z,79.5
2022-11-03T11:52:19.497Z,79.5
2022-11-03T11:53:16.938Z,79.7
2022-11-03T11:54:18.747Z,78.6
2022-11-03T11:55:17.279Z,78.7
2022-11-03T11:56:16.707Z,79.0
2022-11-03T11:57:17.137Z,79.6
2022-11-03T11:58:16.586Z,79.2
2022-11-03T11:59:24.591Z,79.2
2022-11-03T12:00:16.817Z,79.7
2022-11-03T12:01:17.357Z,78.8
2022-11-03T12:02:16.960Z,79.5
2022-11-03T12:03:17.581Z,79.7
2022-11-03T12:05:16.555Z,79.5
2022-11-03T12:06:17.019Z,80.5
2022-11-03T12:07:16.632Z,80.3
2022-11-03T12:08:17.090Z,80.2
2022-11-03T12:09:16.573Z,79.9
2022-11-03T12:10:17.008Z,79.7
2022-11-03T12:11:16.564Z,79.5
2022-11-03T12:12:17.370Z,79.2
2022-11-03T12:13:16.799Z,79.1
2022-11-03T12:14:17.272Z,79.2
2022-11-03T12:15:16.764Z,79.2
2022-11-03T12:16:17.241Z,79.2
2022-11-03T12:17:16.738Z,79.8
2022-11-03T12:18:17.198Z,80.4
2022-11-03T12:19:16.662Z,79.2
2022-11-03T12:20:17.155Z,79.2
2022-11-03T12:21:16.641Z,80.4
2022-11-03T12:22:16.997Z,80.3
2022-11-03T12:23:16.423Z,79.5
2022-11-03T12:24:16.855Z,79.8
2022-11-03T12:25:17.326Z,81.0
2022-11-03T12:26:16.771Z,80.7
2022-11-03T12:27:17.202Z,79.8
2022-11-03T12:28:16.654Z,79.9
2022-11-03T12:29:17.112Z,79.8
2022-11-03T12:30:16.572Z,80.2
2022-11-03T12:31:17.051Z,80.0
2022-11-03T12:32:33.231Z,80.4
2022-11-03T12:33:17.065Z,80.0
2022-11-03T12:34:16.535Z,79.8
2022-11-03T12:35:17.027Z,80.2
2022-11-03T12:36:16.467Z,80.0
2022-11-03T12:37:16.925Z,80.8
2022-11-03T12:38:17.360Z,80.2
2022-11-03T12:39:16.815Z,79.8
2022-11-03T12:40:17.282Z,80.0
2022-11-03T12:41:16.720Z,80.2
2022-11-03T12:42:16.889Z,80.7
2022-11-03T12:43:17.353Z,80.3
2022-11-03T12:44:17.206Z,79.8
2022-11-03T12:45:16.717Z,79.8
2022-11-03T12:46:17.203Z,80.0
2022-11-03T12:47:16.707Z,80.6
2022-11-03T12:48:17.185Z,80.7
2022-11-03T12:49:16.642Z,81.4
2022-11-03T12:50:17.112Z,80.2
2022-11-03T12:51:16.576Z,80.5
2022-11-03T12:52:17.343Z,81.2
2022-11-03T12:53:16.789Z,80.2
2022-11-03T12:54:17.210Z,80.4
2022-11-03T12:55:16.813Z,81.5
2022-11-03T12:56:17.295Z,81.2
2022-11-03T12:57:16.733Z,80.6
2022-11-03T12:58:17.208Z,81.0
2022-11-03T12:59:16.705Z,81.0
2022-11-03T13:00:17.186Z,81.2
2022-11-03T13:01:17.090Z,81.3
2022-11-03T13:02:17.651Z,80.7
2022-11-03T13:03:17.208Z,80.7
2022-11-03T13:04:16.709Z,80.8
2022-11-03T13:05:17.250Z,80.7
2022-11-03T13:06:16.690Z,80.9
2022-11-03T13:07:27.891Z,82.0
2022-11-03T13:09:16.916Z,81.0
2022-11-03T13:10:17.368Z,82.2
2022-11-03T13:11:16.795Z,81.5
2022-11-03T13:12:16.638Z,81.2
2022-11-03T13:13:17.149Z,81.2
2022-11-03T13:14:16.666Z,80.8
2022-11-03T13:15:17.150Z,81.0
2022-11-03T13:16:16.668Z,81.6
2022-11-03T13:17:17.163Z,82.7
2022-11-03T13:18:16.664Z,82.7
2022-11-03T13:19:17.175Z,81.6
2022-11-03T13:20:16.604Z,81.7
2022-11-03T13:21:17.094Z,82.0
2022-11-03T13:22:17.081Z,81.7
2022-11-03T13:23:23.008Z,83.0
2022-11-03T13:24:16.668Z,82.0